Portada
METAR-TAF:

METAR-TAF

Aeroports :

Saint-Yan, França

latitud: 46-24-45N, longitud: 004-00-48E, altitud: 244 m

Observació

L'informe es va fer fa 27 minuts, a les 21:30 UTC
Vent calma
Temperatura 19°C
Humitat 78%
Pressió 1018 hPa
Visibilitat 10 km o més
sense núvols per sota de 1500 mi sense presència de cumulonimbus.

METAR: LFLN 242130Z AUTO 00000KT CAVOK 19/15 Q1018 NOSIG

Hora: 23:57 (21:57 UTC)

Pronòstic

L'informe es va fer fa 4 hores i 57 minuts, a les 17:00 UTC
Pronòstic vàlid del 24 a les 18 UTC al 25 a les 03 UTC
Vent 3 kt amb direcció variable
Visibilitat 10 km o més
sense núvols per sota de 1500 mi sense presència de cumulonimbus.
Temporalment
l' 24 a les 19 UTC al 24 a les 21 UTC
Vent 5 kt del Est/Sud-Est

TAF: LFLN 241700Z 2418/2503 VRB03KT CAVOK TEMPO 2419/2421 12005KT

Observacions i pronòstics meteorològics de més de 4000 aeroports (METAR i TAF).

Les estacions disponibles són els punts grocs i vermells al mapa.

Posi el ratolí al punt desitjat per veure el nom de l'estació.

Feu clic per veure les observacions i els pronòstics meteorològics.

Per canviar el mapa: feu clic els botons verds amb una creu de color negre per apropar; al botó verd amb un guió per allunyar la imatge; o en les fletxes verdes per a mapes adjacents.


METAR-TAF: